createdAt,value
2023-08-11T00:04:04.406Z,74.34
2023-08-11T00:14:10.117Z,74.57
2023-08-11T00:24:16.004Z,74.77
2023-08-11T00:34:21.749Z,75.01
2023-08-11T00:44:27.462Z,75.37
2023-08-11T00:54:33.174Z,75.72
2023-08-11T01:04:39.411Z,76.15
2023-08-11T01:14:55.872Z,76.37
2023-08-11T01:25:01.643Z,76.87
2023-08-11T01:35:10.240Z,77.13
2023-08-11T01:45:17.787Z,77.05
2023-08-11T01:55:26.049Z,77.60
2023-08-11T02:05:32.176Z,78.10
2023-08-11T02:15:37.916Z,78.23
2023-08-11T02:25:43.873Z,78.24
2023-08-11T02:35:49.527Z,78.89
2023-08-11T02:45:55.111Z,79.46
2023-08-11T02:56:02.304Z,79.29
2023-08-11T03:06:08.002Z,80.38
2023-08-11T03:16:13.672Z,80.28
2023-08-11T03:26:19.339Z,80.52
2023-08-11T03:36:25.067Z,80.92
2023-08-11T03:46:31.461Z,80.93
2023-08-11T03:56:37.168Z,81.29
2023-08-11T04:06:42.986Z,81.02
2023-08-11T04:16:49.010Z,80.84
2023-08-11T04:26:55.039Z,81.15
2023-08-11T04:37:01.371Z,81.81
2023-08-11T04:47:08.208Z,81.72
2023-08-11T04:57:14.019Z,80.39
2023-08-11T05:07:19.713Z,79.12
2023-08-11T05:17:25.379Z,84.87
2023-08-11T05:27:31.362Z,72.33
2023-08-11T05:37:38.708Z,55.43
2023-08-11T05:47:44.358Z,42.96
2023-08-11T05:57:50.551Z,36.15
2023-08-11T06:08:06.072Z,30.30
2023-08-11T06:18:12.792Z,26.39
2023-08-11T06:28:18.906Z,23.45
2023-08-11T06:38:24.657Z,21.21
2023-08-11T06:48:30.351Z,19.56
2023-08-11T06:58:36.099Z,18.00
2023-08-11T07:08:41.828Z,16.61
2023-08-11T07:18:47.452Z,15.59
2023-08-11T07:28:53.293Z,15.46
2023-08-11T07:39:12.840Z,14.22
2023-08-11T07:49:24.880Z,13.45
2023-08-11T07:59:30.706Z,12.88
2023-08-11T08:09:36.475Z,12.46
2023-08-11T08:19:42.232Z,12.38
2023-08-11T08:29:48.103Z,13.39
2023-08-11T08:39:54.143Z,15.78
2023-08-11T08:50:02.960Z,18.27
2023-08-11T09:00:10.884Z,20.11
2023-08-11T09:10:18.576Z,21.62
2023-08-11T09:20:26.508Z,22.52
2023-08-11T09:30:33.391Z,24.08
2023-08-11T09:40:39.107Z,25.08
2023-08-11T09:50:46.361Z,25.88
2023-08-11T10:21:31.548Z,27.95
2023-08-11T10:31:37.303Z,28.71
2023-08-11T11:50:14.364Z,28.13
2023-08-11T12:00:22.078Z,28.57
2023-08-11T12:10:36.045Z,28.43
2023-08-11T12:20:42.119Z,28.13
2023-08-11T12:30:48.094Z,28.59
2023-08-11T12:40:53.940Z,29.39
2023-08-11T12:50:59.693Z,29.98
2023-08-11T13:01:08.047Z,30.67
2023-08-11T13:11:13.780Z,31.19
2023-08-11T13:21:19.469Z,31.43
2023-08-11T13:31:25.600Z,31.58
2023-08-11T13:41:31.432Z,31.84
2023-08-11T13:51:37.528Z,32.17
2023-08-11T14:01:43.284Z,32.46
2023-08-11T14:11:49.408Z,32.28
2023-08-11T14:21:55.180Z,32.16
2023-08-11T14:32:18.141Z,32.61
2023-08-11T14:42:27.137Z,32.59
2023-08-11T14:52:32.910Z,32.68
2023-08-11T15:02:38.877Z,32.91
2023-08-11T15:12:44.940Z,32.98
2023-08-11T15:22:51.777Z,33.46
2023-08-11T15:32:57.902Z,33.45
2023-08-11T15:43:03.811Z,33.63
2023-08-11T15:53:09.736Z,34.13
2023-08-11T16:03:16.013Z,34.64
2023-08-11T16:13:21.970Z,34.73
2023-08-11T16:23:27.702Z,35.07
2023-08-11T16:33:33.440Z,35.79
2023-08-11T16:43:40.909Z,36.15
2023-08-11T16:53:49.107Z,36.57
2023-08-11T17:03:55.027Z,36.77
2023-08-11T17:14:00.919Z,37.11
2023-08-11T17:24:07.573Z,37.20
2023-08-11T17:34:13.263Z,37.69
2023-08-11T17:44:19.503Z,38.58
2023-08-11T17:54:25.335Z,39.77
2023-08-11T18:04:31.109Z,40.80
2023-08-11T18:14:36.877Z,42.27
2023-08-11T18:24:43.167Z,43.69
2023-08-11T18:34:49.237Z,45.08
2023-08-11T18:44:55.125Z,46.50
2023-08-11T18:55:00.974Z,48.13
2023-08-11T19:05:08.394Z,49.51
2023-08-11T19:15:14.729Z,50.83
2023-08-11T19:25:20.702Z,52.18
2023-08-11T19:35:26.460Z,53.49
2023-08-11T19:45:32.547Z,54.63
2023-08-11T19:55:38.737Z,55.54
2023-08-11T20:05:48.585Z,56.81
2023-08-11T20:16:02.073Z,57.96
2023-08-11T20:26:08.036Z,58.86
2023-08-11T20:36:13.931Z,59.98
2023-08-11T20:46:19.913Z,60.84
2023-08-11T20:56:25.840Z,61.50
2023-08-11T21:06:33.930Z,62.29
2023-08-11T21:16:39.827Z,63.21
2023-08-11T21:26:45.647Z,64.01
2023-08-11T21:36:51.671Z,64.52
2023-08-11T21:46:57.455Z,65.14
2023-08-11T21:57:03.200Z,65.97
2023-08-11T22:07:09.396Z,66.84
2023-08-11T22:17:15.920Z,67.41
2023-08-11T22:27:21.776Z,68.10
2023-08-11T22:37:27.706Z,68.49
2023-08-11T22:47:33.436Z,68.98
2023-08-11T22:57:39.263Z,69.50
2023-08-11T23:07:45.332Z,70.25
2023-08-11T23:17:51.556Z,70.70
2023-08-11T23:27:57.304Z,71.08
2023-08-11T23:38:03.044Z,71.61
2023-08-11T23:48:09.446Z,72.07
2023-08-11T23:58:15.369Z,72.56
